sensor_id;sensor_type;location;lat;lon;timestamp;pressure;altitude;pressure_sealevel;temperature;humidity
72921;BME280;61064;51.654;5.476;2022-12-24T00:00:23;100644.97;;;10.57;87.71
72921;BME280;61064;51.654;5.476;2022-12-24T00:02:52;100671.59;;;10.62;87.84
72921;BME280;61064;51.654;5.476;2022-12-24T00:05:17;100658.25;;;10.53;87.87
72921;BME280;61064;51.654;5.476;2022-12-24T00:07:46;100670.69;;;10.52;88.00
72921;BME280;61064;51.654;5.476;2022-12-24T00:10:11;100637.78;;;10.32;88.12
72921;BME280;61064;51.654;5.476;2022-12-24T00:12:37;100682.19;;;10.50;88.08
72921;BME280;61064;51.654;5.476;2022-12-24T00:15:04;100666.19;;;10.40;88.11
72921;BME280;61064;51.654;5.476;2022-12-24T00:17:30;100669.72;;;10.39;88.32
72921;BME280;61064;51.654;5.476;2022-12-24T00:19:55;100675.97;;;10.41;88.36
72921;BME280;61064;51.654;5.476;2022-12-24T00:22:21;100675.03;;;10.39;88.32
72921;BME280;61064;51.654;5.476;2022-12-24T00:24:46;100683.94;;;10.41;88.53
72921;BME280;61064;51.654;5.476;2022-12-24T00:27:12;100666.09;;;10.25;88.50
72921;BME280;61064;51.654;5.476;2022-12-24T00:29:37;100670.56;;;10.29;88.43
72921;BME280;61064;51.654;5.476;2022-12-24T00:32:03;100677.66;;;10.29;88.38
72921;BME280;61064;51.654;5.476;2022-12-24T00:34:32;100706.97;;;10.41;88.59
72921;BME280;61064;51.654;5.476;2022-12-24T00:36:57;100683.88;;;10.29;88.59
72921;BME280;61064;51.654;5.476;2022-12-24T00:39:23;100714.06;;;10.42;88.56
72921;BME280;61064;51.654;5.476;2022-12-24T00:41:48;100710.50;;;10.40;88.58
72921;BME280;61064;51.654;5.476;2022-12-24T00:44:14;100716.69;;;10.37;88.48
72921;BME280;61064;51.654;5.476;2022-12-24T00:46:40;100718.50;;;10.40;88.57
72921;BME280;61064;51.654;5.476;2022-12-24T00:49:06;100669.63;;;10.17;88.58
72921;BME280;61064;51.654;5.476;2022-12-24T00:51:33;100728.28;;;10.47;88.57
72921;BME280;61064;51.654;5.476;2022-12-24T00:53:59;100698.00;;;10.22;88.39
72921;BME280;61064;51.654;5.476;2022-12-24T00:56:25;100705.13;;;10.29;88.49
72921;BME280;61064;51.654;5.476;2022-12-24T00:58:51;100721.06;;;10.28;88.25
72921;BME280;61064;51.654;5.476;2022-12-24T01:01:17;100742.41;;;10.40;88.21
72921;BME280;61064;51.654;5.476;2022-12-24T01:03:42;100750.41;;;10.45;88.35
72921;BME280;61064;51.654;5.476;2022-12-24T01:06:12;100744.19;;;10.36;88.19
72921;BME280;61064;51.654;5.476;2022-12-24T01:08:38;100721.03;;;10.22;88.35
72921;BME280;61064;51.654;5.476;2022-12-24T01:11:05;100761.03;;;10.43;88.33
72921;BME280;61064;51.654;5.476;2022-12-24T01:13:32;100735.28;;;10.33;88.25
72921;BME280;61064;51.654;5.476;2022-12-24T01:15:57;100761.03;;;10.38;88.13
72921;BME280;61064;51.654;5.476;2022-12-24T01:18:23;100708.56;;;10.13;88.12
72921;BME280;61064;51.654;5.476;2022-12-24T01:21:00;100745.97;;;10.40;88.19
72921;BME280;61064;51.654;5.476;2022-12-24T01:23:26;100753.03;;;10.35;88.23
72921;BME280;61064;51.654;5.476;2022-12-24T01:25:52;100734.31;;;10.17;88.10
72921;BME280;61064;51.654;5.476;2022-12-24T01:28:18;100772.56;;;10.39;88.23
72921;BME280;61064;51.654;5.476;2022-12-24T01:30:44;100773.41;;;10.30;88.08
72921;BME280;61064;51.654;5.476;2022-12-24T01:33:09;100754.69;;;10.18;87.74
72921;BME280;61064;51.654;5.476;2022-12-24T01:35:38;100774.25;;;10.31;87.99
72921;BME280;61064;51.654;5.476;2022-12-24T01:38:04;100776.94;;;10.29;87.97
72921;BME280;61064;51.654;5.476;2022-12-24T01:40:29;100784.88;;;10.25;88.17
72921;BME280;61064;51.654;5.476;2022-12-24T01:43:24;100793.69;;;10.21;88.01
72921;BME280;61064;51.654;5.476;2022-12-24T01:49:01;100798.13;;;10.19;88.07
72921;BME280;61064;51.654;5.476;2022-12-24T01:51:38;100791.81;;;10.11;88.09
72921;BME280;61064;51.654;5.476;2022-12-24T01:54:10;100802.50;;;10.14;88.28
72921;BME280;61064;51.654;5.476;2022-12-24T01:56:44;100795.34;;;10.10;88.17
72921;BME280;61064;51.654;5.476;2022-12-24T01:59:12;100799.75;;;10.06;88.20
72921;BME280;61064;51.654;5.476;2022-12-24T02:01:38;100800.56;;;9.97;88.14
72921;BME280;61064;51.654;5.476;2022-12-24T02:04:12;100819.22;;;10.02;88.25
72921;BME280;61064;51.654;5.476;2022-12-24T02:06:42;100822.75;;;9.99;88.24
72921;BME280;61064;51.654;5.476;2022-12-24T02:09:08;100821.84;;;9.96;88.56
72921;BME280;61064;51.654;5.476;2022-12-24T02:11:35;100843.09;;;9.97;88.60
72921;BME280;61064;51.654;5.476;2022-12-24T02:14:01;100824.47;;;9.94;88.22
72921;BME280;61064;51.654;5.476;2022-12-24T02:21:51;100849.34;;;10.04;88.70
72921;BME280;61064;51.654;5.476;2022-12-24T02:25:11;100841.41;;;10.06;88.83
72921;BME280;61064;51.654;5.476;2022-12-24T02:30:28;100846.72;;;10.09;88.87
72921;BME280;61064;51.654;5.476;2022-12-24T02:36:04;100846.78;;;10.13;88.85
72921;BME280;61064;51.654;5.476;2022-12-24T02:38:35;100846.75;;;10.10;88.92
72921;BME280;61064;51.654;5.476;2022-12-24T02:41:15;100849.44;;;10.15;89.03
72921;BME280;61064;51.654;5.476;2022-12-24T02:43:44;100836.19;;;10.16;88.78
72921;BME280;61064;51.654;5.476;2022-12-24T02:46:14;100842.44;;;10.18;88.94
72921;BME280;61064;51.654;5.476;2022-12-24T02:48:41;100845.91;;;10.16;88.87
72921;BME280;61064;51.654;5.476;2022-12-24T02:51:09;100850.41;;;10.20;88.91
72921;BME280;61064;51.654;5.476;2022-12-24T02:53:36;100853.06;;;10.20;89.00
72921;BME280;61064;51.654;5.476;2022-12-24T02:56:11;100850.44;;;10.23;89.08
72921;BME280;61064;51.654;5.476;2022-12-24T03:04:23;100858.44;;;10.24;88.96
72921;BME280;61064;51.654;5.476;2022-12-24T03:12:11;100842.38;;;10.14;89.01
72921;BME280;61064;51.654;5.476;2022-12-24T03:14:39;100853.94;;;10.20;89.12
72921;BME280;61064;51.654;5.476;2022-12-24T03:17:07;100848.63;;;10.17;89.01
72921;BME280;61064;51.654;5.476;2022-12-24T03:19:33;100853.06;;;10.17;89.13
72921;BME280;61064;51.654;5.476;2022-12-24T03:22:01;100853.94;;;10.20;89.27
72921;BME280;61064;51.654;5.476;2022-12-24T03:24:28;100869.06;;;10.24;89.40
72921;BME280;61064;51.654;5.476;2022-12-24T03:26:54;100855.72;;;10.20;89.44
72921;BME280;61064;51.654;5.476;2022-12-24T03:29:19;100864.59;;;10.20;89.31
72921;BME280;61064;51.654;5.476;2022-12-24T03:31:50;100870.81;;;10.25;89.66
72921;BME280;61064;51.654;5.476;2022-12-24T03:34:16;100846.78;;;10.15;89.47
72921;BME280;61064;51.654;5.476;2022-12-24T03:36:42;100869.09;;;10.27;89.65
72921;BME280;61064;51.654;5.476;2022-12-24T03:39:09;100871.72;;;10.24;89.69
72921;BME280;61064;51.654;5.476;2022-12-24T03:41:35;100870.81;;;10.22;89.61
72921;BME280;61064;51.654;5.476;2022-12-24T03:44:01;100870.84;;;10.27;89.60
72921;BME280;61064;51.654;5.476;2022-12-24T03:46:26;100864.66;;;10.25;89.37
72921;BME280;61064;51.654;5.476;2022-12-24T03:48:52;100869.13;;;10.30;89.66
72921;BME280;61064;51.654;5.476;2022-12-24T03:51:19;100874.44;;;10.32;89.71
72921;BME280;61064;51.654;5.476;2022-12-24T03:53:46;100867.31;;;10.25;89.74
72921;BME280;61064;51.654;5.476;2022-12-24T03:56:11;100838.81;;;10.13;89.71
72921;BME280;61064;51.654;5.476;2022-12-24T03:58:37;100885.13;;;10.36;89.66
72921;BME280;61064;51.654;5.476;2022-12-24T04:01:02;100840.59;;;10.13;89.89
72921;BME280;61064;51.654;5.476;2022-12-24T04:03:28;100884.25;;;10.39;89.86
72921;BME280;61064;51.654;5.476;2022-12-24T04:06:07;100870.91;;;10.33;89.91
72921;BME280;61064;51.654;5.476;2022-12-24T04:08:34;100894.91;;;10.43;89.86
72921;BME280;61064;51.654;5.476;2022-12-24T04:11:07;100878.06;;;10.40;89.82
72921;BME280;61064;51.654;5.476;2022-12-24T04:13:33;100883.41;;;10.41;89.89
72921;BME280;61064;51.654;5.476;2022-12-24T04:16:07;100892.31;;;10.50;89.85
72921;BME280;61064;51.654;5.476;2022-12-24T04:18:34;100901.19;;;10.50;89.94
72921;BME280;61064;51.654;5.476;2022-12-24T04:20:59;100892.31;;;10.50;89.83
72921;BME280;61064;51.654;5.476;2022-12-24T04:23:25;100908.34;;;10.59;90.16
72921;BME280;61064;51.654;5.476;2022-12-24T04:25:51;100909.25;;;10.62;89.86
72921;BME280;61064;51.654;5.476;2022-12-24T04:28:17;100909.25;;;10.65;89.75
72921;BME280;61064;51.654;5.476;2022-12-24T04:30:43;100897.72;;;10.62;89.82
72921;BME280;61064;51.654;5.476;2022-12-24T04:33:09;100904.00;;;10.70;89.86
72921;BME280;61064;51.654;5.476;2022-12-24T04:35:39;100894.16;;;10.61;89.74
72921;BME280;61064;51.654;5.476;2022-12-24T04:38:05;100905.72;;;10.63;89.91
72921;BME280;61064;51.654;5.476;2022-12-24T04:40:32;100915.53;;;10.73;89.90
72921;BME280;61064;51.654;5.476;2022-12-24T04:42:57;100909.31;;;10.73;89.95
72921;BME280;61064;51.654;5.476;2022-12-24T04:45:23;100925.28;;;10.71;89.84
72921;BME280;61064;51.654;5.476;2022-12-24T04:47:48;100915.50;;;10.69;89.73
72921;BME280;61064;51.654;5.476;2022-12-24T04:50:13;100923.53;;;10.76;89.47
72921;BME280;61064;51.654;5.476;2022-12-24T04:52:39;100931.53;;;10.78;89.83
72921;BME280;61064;51.654;5.476;2022-12-24T04:55:04;100911.13;;;10.75;89.77
72921;BME280;61064;51.654;5.476;2022-12-24T04:57:31;100912.91;;;10.75;89.86
72921;BME280;61064;51.654;5.476;2022-12-24T04:59:57;100921.78;;;10.78;89.85
72921;BME280;61064;51.654;5.476;2022-12-24T05:02:23;100925.34;;;10.79;89.81
72921;BME280;61064;51.654;5.476;2022-12-24T05:04:49;100932.44;;;10.78;90.07
72921;BME280;61064;51.654;5.476;2022-12-24T05:07:14;100927.09;;;10.81;89.78
72921;BME280;61064;51.654;5.476;2022-12-24T05:09:39;100921.78;;;10.75;89.71
72921;BME280;61064;51.654;5.476;2022-12-24T05:12:05;100919.13;;;10.75;89.69
72921;BME280;61064;51.654;5.476;2022-12-24T05:14:31;100920.00;;;10.74;89.72
72921;BME280;61064;51.654;5.476;2022-12-24T05:16:56;100933.34;;;10.80;89.66
72921;BME280;61064;51.654;5.476;2022-12-24T05:19:22;100927.94;;;10.73;89.86
72921;BME280;61064;51.654;5.476;2022-12-24T05:21:47;100925.28;;;10.71;89.96
72921;BME280;61064;51.654;5.476;2022-12-24T05:24:32;100935.94;;;10.76;89.85
72921;BME280;61064;51.654;5.476;2022-12-24T05:27:16;100921.75;;;10.74;89.77
72921;BME280;61064;51.654;5.476;2022-12-24T05:29:42;100919.06;;;10.69;89.83
72921;BME280;61064;51.654;5.476;2022-12-24T05:32:07;100929.78;;;10.80;89.64
72921;BME280;61064;51.654;5.476;2022-12-24T05:34:33;100933.28;;;10.76;89.72
72921;BME280;61064;51.654;5.476;2022-12-24T05:36:58;100910.19;;;10.69;89.80
72921;BME280;61064;51.654;5.476;2022-12-24T05:39:23;100924.41;;;10.77;89.79
72921;BME280;61064;51.654;5.476;2022-12-24T05:41:49;100935.97;;;10.79;89.96
72921;BME280;61064;51.654;5.476;2022-12-24T05:44:14;100944.84;;;10.79;89.78
72921;BME280;61064;51.654;5.476;2022-12-24T05:46:40;100931.50;;;10.72;89.78
72921;BME280;61064;51.654;5.476;2022-12-24T05:49:06;100930.59;;;10.71;89.67
72921;BME280;61064;51.654;5.476;2022-12-24T05:51:31;100943.06;;;10.78;89.75
72921;BME280;61064;51.654;5.476;2022-12-24T05:53:57;100939.50;;;10.75;89.79
72921;BME280;61064;51.654;5.476;2022-12-24T05:56:23;100953.69;;;10.77;89.73
72921;BME280;61064;51.654;5.476;2022-12-24T05:58:50;100955.44;;;10.72;89.70
72921;BME280;61064;51.654;5.476;2022-12-24T06:01:16;100963.47;;;10.75;89.79
72921;BME280;61064;51.654;5.476;2022-12-24T06:03:42;100969.63;;;10.71;89.77
72921;BME280;61064;51.654;5.476;2022-12-24T06:06:13;100967.84;;;10.70;89.65
72921;BME280;61064;51.654;5.476;2022-12-24T06:08:40;100978.53;;;10.74;89.89
72921;BME280;61064;51.654;5.476;2022-12-24T06:11:08;100973.19;;;10.76;89.76
72921;BME280;61064;51.654;5.476;2022-12-24T06:13:34;100974.97;;;10.72;89.74
72921;BME280;61064;51.654;5.476;2022-12-24T06:16:02;100985.63;;;10.77;89.75
72921;BME280;61064;51.654;5.476;2022-12-24T06:18:29;100937.53;;;10.51;89.58
72921;BME280;61064;51.654;5.476;2022-12-24T06:20:56;100980.25;;;10.68;89.68
72921;BME280;61064;51.654;5.476;2022-12-24T06:23:22;100952.56;;;10.46;89.68
72921;BME280;61064;51.654;5.476;2022-12-24T06:25:49;100992.72;;;10.73;89.65
72921;BME280;61064;51.654;5.476;2022-12-24T06:28:15;100972.25;;;10.66;89.75
72921;BME280;61064;51.654;5.476;2022-12-24T06:30:44;100988.31;;;10.75;89.71
72921;BME280;61064;51.654;5.476;2022-12-24T06:33:10;100953.50;;;10.51;89.72
72921;BME280;61064;51.654;5.476;2022-12-24T06:35:35;100990.91;;;10.69;89.69
72921;BME280;61064;51.654;5.476;2022-12-24T06:38:00;100996.19;;;10.63;89.64
72921;BME280;61064;51.654;5.476;2022-12-24T06:40:26;100989.94;;;10.61;89.86
72921;BME280;61064;51.654;5.476;2022-12-24T06:42:52;101009.47;;;10.65;89.84
72921;BME280;61064;51.654;5.476;2022-12-24T06:45:17;100979.19;;;10.49;89.79
72921;BME280;61064;51.654;5.476;2022-12-24T06:47:43;101007.72;;;10.64;90.13
72921;BME280;61064;51.654;5.476;2022-12-24T06:50:08;100994.31;;;10.55;89.77
72921;BME280;61064;51.654;5.476;2022-12-24T06:52:34;101009.44;;;10.57;89.87
72921;BME280;61064;51.654;5.476;2022-12-24T06:54:59;101000.56;;;10.57;89.80
72921;BME280;61064;51.654;5.476;2022-12-24T06:57:24;100981.81;;;10.45;89.65
72921;BME280;61064;51.654;5.476;2022-12-24T06:59:50;100999.66;;;10.59;89.83
72921;BME280;61064;51.654;5.476;2022-12-24T07:02:15;101005.84;;;10.55;89.69
72921;BME280;61064;51.654;5.476;2022-12-24T07:04:40;101014.78;;;10.59;89.64
72921;BME280;61064;51.654;5.476;2022-12-24T07:07:06;101000.50;;;10.52;89.62
72921;BME280;61064;51.654;5.476;2022-12-24T07:09:31;101021.81;;;10.55;89.50
72921;BME280;61064;51.654;5.476;2022-12-24T07:11:56;101027.09;;;10.54;89.19
72921;BME280;61064;51.654;5.476;2022-12-24T07:14:22;101000.41;;;10.43;89.31
72921;BME280;61064;51.654;5.476;2022-12-24T07:16:47;101028.00;;;10.51;89.33
72921;BME280;61064;51.654;5.476;2022-12-24T07:19:14;101028.81;;;10.46;89.17
72921;BME280;61064;51.654;5.476;2022-12-24T07:21:39;101027.06;;;10.46;89.26
72921;BME280;61064;51.654;5.476;2022-12-24T07:24:05;101016.38;;;10.41;89.16
72921;BME280;61064;51.654;5.476;2022-12-24T07:26:30;101015.41;;;10.33;89.20
72921;BME280;61064;51.654;5.476;2022-12-24T07:28:56;101016.25;;;10.31;89.24
72921;BME280;61064;51.654;5.476;2022-12-24T07:31:21;101026.97;;;10.38;89.17
72921;BME280;61064;51.654;5.476;2022-12-24T07:33:47;101039.41;;;10.41;89.16
72921;BME280;61064;51.654;5.476;2022-12-24T07:36:20;101049.13;;;10.39;89.09
72921;BME280;61064;51.654;5.476;2022-12-24T07:38:46;101065.16;;;10.45;89.13
72921;BME280;61064;51.654;5.476;2022-12-24T07:41:12;101065.16;;;10.45;89.08
72921;BME280;61064;51.654;5.476;2022-12-24T07:43:37;101075.81;;;10.45;89.03
72921;BME280;61064;51.654;5.476;2022-12-24T07:46:03;101076.66;;;10.42;89.24
72921;BME280;61064;51.654;5.476;2022-12-24T07:48:29;101064.19;;;10.37;89.18
72921;BME280;61064;51.654;5.476;2022-12-24T07:50:55;101073.03;;;10.37;89.06
72921;BME280;61064;51.654;5.476;2022-12-24T07:53:21;101083.69;;;10.37;89.03
72921;BME280;61064;51.654;5.476;2022-12-24T07:55:47;101061.34;;;10.20;89.03
72921;BME280;61064;51.654;5.476;2022-12-24T07:58:12;101088.00;;;10.25;88.92
72921;BME280;61064;51.654;5.476;2022-12-24T08:00:37;101093.31;;;10.25;88.96
72921;BME280;61064;51.654;5.476;2022-12-24T08:03:03;101111.03;;;10.26;89.33
72921;BME280;61064;51.654;5.476;2022-12-24T08:05:35;101118.09;;;10.22;89.21
72921;BME280;61064;51.654;5.476;2022-12-24T08:08:01;101116.28;;;10.21;89.42
72921;BME280;61064;51.654;5.476;2022-12-24T08:10:26;101113.59;;;10.17;89.49
72921;BME280;61064;51.654;5.476;2022-12-24T08:12:51;101099.22;;;10.06;89.42
72921;BME280;61064;51.654;5.476;2022-12-24T08:15:17;101116.13;;;10.11;89.69
72921;BME280;61064;51.654;5.476;2022-12-24T08:17:43;101113.44;;;10.06;89.29
72921;BME280;61064;51.654;5.476;2022-12-24T08:20:09;101129.41;;;10.08;89.63
72921;BME280;61064;51.654;5.476;2022-12-24T08:22:34;101128.50;;;10.09;89.46
72921;BME280;61064;51.654;5.476;2022-12-24T08:25:00;101128.50;;;10.07;89.70
72921;BME280;61064;51.654;5.476;2022-12-24T08:27:25;101155.28;;;10.19;89.62
72921;BME280;61064;51.654;5.476;2022-12-24T08:29:50;101148.97;;;10.14;89.62
72921;BME280;61064;51.654;5.476;2022-12-24T08:32:17;101153.50;;;10.18;89.66
72921;BME280;61064;51.654;5.476;2022-12-24T08:34:42;101143.59;;;10.10;89.72
72921;BME280;61064;51.654;5.476;2022-12-24T08:37:07;101156.13;;;10.17;89.81
72921;BME280;61064;51.654;5.476;2022-12-24T08:39:33;101154.38;;;10.20;89.82
72921;BME280;61064;51.654;5.476;2022-12-24T08:41:58;101141.06;;;10.17;89.78
72921;BME280;61064;51.654;5.476;2022-12-24T08:44:24;101164.22;;;10.26;89.93
72921;BME280;61064;51.654;5.476;2022-12-24T08:46:49;101160.66;;;10.24;89.61
72921;BME280;61064;51.654;5.476;2022-12-24T08:49:14;101139.19;;;10.12;89.57
72921;BME280;61064;51.654;5.476;2022-12-24T08:51:40;101164.22;;;10.24;89.56
72921;BME280;61064;51.654;5.476;2022-12-24T08:54:05;101174.94;;;10.30;89.73
72921;BME280;61064;51.654;5.476;2022-12-24T08:56:31;101157.94;;;10.21;89.68
72921;BME280;61064;51.654;5.476;2022-12-24T08:58:58;101181.19;;;10.37;89.83
72921;BME280;61064;51.654;5.476;2022-12-24T09:01:24;101169.53;;;10.24;89.74
72921;BME280;61064;51.654;5.476;2022-12-24T09:03:49;101203.41;;;10.39;89.80
72921;BME280;61064;51.654;5.476;2022-12-24T09:06:14;101189.16;;;10.34;90.03
72921;BME280;61064;51.654;5.476;2022-12-24T09:08:40;101196.31;;;10.39;89.75
72921;BME280;61064;51.654;5.476;2022-12-24T09:11:11;101182.06;;;10.34;89.87
72921;BME280;61064;51.654;5.476;2022-12-24T09:13:37;101204.41;;;10.49;89.68
72921;BME280;61064;51.654;5.476;2022-12-24T09:16:03;101211.53;;;10.51;89.87
72921;BME280;61064;51.654;5.476;2022-12-24T09:18:29;101215.09;;;10.52;89.92
72921;BME280;61064;51.654;5.476;2022-12-24T09:21:06;101208.03;;;10.55;89.74
72921;BME280;61064;51.654;5.476;2022-12-24T09:23:34;101196.50;;;10.55;89.96
72921;BME280;61064;51.654;5.476;2022-12-24T09:26:04;101205.44;;;10.58;89.66
72921;BME280;61064;51.654;5.476;2022-12-24T09:28:29;101210.69;;;10.55;89.75
72921;BME280;61064;51.654;5.476;2022-12-24T09:30:59;101219.59;;;10.57;89.70
72921;BME280;61064;51.654;5.476;2022-12-24T09:33:26;101217.78;;;10.53;89.61
72921;BME280;61064;51.654;5.476;2022-12-24T09:35:52;101242.81;;;10.69;89.54
72921;BME280;61064;51.654;5.476;2022-12-24T09:38:19;101232.94;;;10.62;89.66
72921;BME280;61064;51.654;5.476;2022-12-24T09:40:45;101237.44;;;10.64;89.83
72921;BME280;61064;51.654;5.476;2022-12-24T09:43:19;101250.78;;;10.70;89.71
72921;BME280;61064;51.654;5.476;2022-12-24T09:48:32;101240.97;;;10.65;89.72
72921;BME280;61064;51.654;5.476;2022-12-24T09:51:10;101238.25;;;10.60;89.33
72921;BME280;61064;51.654;5.476;2022-12-24T09:53:42;101263.16;;;10.67;89.48
72921;BME280;61064;51.654;5.476;2022-12-24T09:56:18;101256.91;;;10.65;89.52
72921;BME280;61064;51.654;5.476;2022-12-24T09:58:47;101250.66;;;10.60;89.66
72921;BME280;61064;51.654;5.476;2022-12-24T10:01:16;101266.69;;;10.66;89.85
72921;BME280;61064;51.654;5.476;2022-12-24T10:03:43;101274.72;;;10.70;89.81
72921;BME280;61064;51.654;5.476;2022-12-24T10:06:19;101274.75;;;10.72;89.78
72921;BME280;61064;51.654;5.476;2022-12-24T10:09:08;101274.00;;;10.80;89.75
72921;BME280;61064;51.654;5.476;2022-12-24T10:11:54;101267.72;;;10.77;89.78
72921;BME280;61064;51.654;5.476;2022-12-24T10:14:46;101292.75;;;10.93;89.50
72921;BME280;61064;51.654;5.476;2022-12-24T10:22:22;101267.13;;;11.01;89.54
72921;BME280;61064;51.654;5.476;2022-12-24T10:25:20;101270.78;;;11.09;89.59
72921;BME280;61064;51.654;5.476;2022-12-24T10:27:48;101260.09;;;11.07;89.32
72921;BME280;61064;51.654;5.476;2022-12-24T10:30:17;101264.63;;;11.16;89.35
72921;BME280;61064;51.654;5.476;2022-12-24T10:32:46;101258.47;;;11.18;89.41
72921;BME280;61064;51.654;5.476;2022-12-24T10:37:42;101256.69;;;11.22;88.98
72921;BME280;61064;51.654;5.476;2022-12-24T10:40:15;101257.63;;;11.24;88.91
72921;BME280;61064;51.654;5.476;2022-12-24T10:42:47;101273.59;;;11.24;88.91
72921;BME280;61064;51.654;5.476;2022-12-24T10:45:15;101281.63;;;11.29;88.76
72921;BME280;61064;51.654;5.476;2022-12-24T10:47:43;101270.94;;;11.24;88.75
72921;BME280;61064;51.654;5.476;2022-12-24T10:50:15;101269.16;;;11.23;88.66
72921;BME280;61064;51.654;5.476;2022-12-24T10:52:43;101276.28;;;11.24;88.76
72921;BME280;61064;51.654;5.476;2022-12-24T10:57:59;101261.06;;;11.12;88.55
72921;BME280;61064;51.654;5.476;2022-12-24T11:00:26;101280.75;;;11.28;88.88
72921;BME280;61064;51.654;5.476;2022-12-24T11:03:28;101285.19;;;11.29;88.46
72921;BME280;61064;51.654;5.476;2022-12-24T11:08:28;101275.41;;;11.28;88.41
72921;BME280;61064;51.654;5.476;2022-12-24T11:10:56;101293.22;;;11.32;87.98
72921;BME280;61064;51.654;5.476;2022-12-24T11:13:23;101296.78;;;11.34;88.01
72921;BME280;61064;51.654;5.476;2022-12-24T11:16:05;101283.44;;;11.30;88.01
72921;BME280;61064;51.654;5.476;2022-12-24T11:18:33;101266.50;;;11.24;87.62
72921;BME280;61064;51.654;5.476;2022-12-24T11:21:02;101285.25;;;11.34;87.65
72921;BME280;61064;51.654;5.476;2022-12-24T11:23:28;101280.78;;;11.31;87.66
72921;BME280;61064;51.654;5.476;2022-12-24T11:25:54;101280.81;;;11.37;87.35
72921;BME280;61064;51.654;5.476;2022-12-24T11:28:29;101294.16;;;11.37;87.36
72921;BME280;61064;51.654;5.476;2022-12-24T11:31:26;101283.50;;;11.37;87.29
72921;BME280;61064;51.654;5.476;2022-12-24T11:33:51;101304.94;;;11.51;87.30
72921;BME280;61064;51.654;5.476;2022-12-24T11:36:22;101300.50;;;11.50;87.05
72921;BME280;61064;51.654;5.476;2022-12-24T11:38:52;101270.19;;;11.39;86.80
72921;BME280;61064;51.654;5.476;2022-12-24T11:41:19;101302.38;;;11.58;86.92
72921;BME280;61064;51.654;5.476;2022-12-24T11:43:50;101311.28;;;11.59;86.55
72921;BME280;61064;51.654;5.476;2022-12-24T11:46:33;101311.28;;;11.59;86.35
72921;BME280;61064;51.654;5.476;2022-12-24T11:51:30;101312.09;;;11.53;86.23
72921;BME280;61064;51.654;5.476;2022-12-24T11:56:45;101304.06;;;11.50;85.97
72921;BME280;61064;51.654;5.476;2022-12-24T11:59:32;101300.47;;;11.48;85.90
72921;BME280;61064;51.654;5.476;2022-12-24T12:02:22;101304.09;;;11.55;85.98
72921;BME280;61064;51.654;5.476;2022-12-24T12:04:54;101304.09;;;11.55;85.92
72921;BME280;61064;51.654;5.476;2022-12-24T12:07:29;101291.63;;;11.48;85.88
72921;BME280;61064;51.654;5.476;2022-12-24T12:09:56;101313.88;;;11.53;85.87
72921;BME280;61064;51.654;5.476;2022-12-24T12:12:26;101316.53;;;11.53;85.72
72921;BME280;61064;51.654;5.476;2022-12-24T12:15:20;101322.72;;;11.50;85.68
72921;BME280;61064;51.654;5.476;2022-12-24T12:20:21;101300.47;;;11.45;85.05
72921;BME280;61064;51.654;5.476;2022-12-24T12:22:52;101312.97;;;11.54;85.35
72921;BME280;61064;51.654;5.476;2022-12-24T12:26:09;101320.94;;;11.51;85.57
72921;BME280;61064;51.654;5.476;2022-12-24T12:28:22;101328.03;;;11.50;85.37
72921;BME280;61064;51.654;5.476;2022-12-24T12:31:44;101292.28;;;11.27;85.33
72921;BME280;61064;51.654;5.476;2022-12-24T12:33:48;101316.53;;;11.53;85.42
72921;BME280;61064;51.654;5.476;2022-12-24T12:36:20;101302.25;;;11.46;85.38
72921;BME280;61064;51.654;5.476;2022-12-24T12:38:47;101279.91;;;11.34;85.33
72921;BME280;61064;51.654;5.476;2022-12-24T12:41:25;101322.81;;;11.58;84.93
72921;BME280;61064;51.654;5.476;2022-12-24T12:44:20;101320.13;;;11.58;84.93
72921;BME280;61064;51.654;5.476;2022-12-24T12:49:32;101335.25;;;11.60;84.90
72921;BME280;61064;51.654;5.476;2022-12-24T12:52:11;101334.38;;;11.61;84.85
72921;BME280;61064;51.654;5.476;2022-12-24T12:57:27;101342.31;;;11.57;84.48
72921;BME280;61064;51.654;5.476;2022-12-24T13:00:03;101345.91;;;11.59;84.51
72921;BME280;61064;51.654;5.476;2022-12-24T13:21:55;101371.41;;;11.37;84.55
72921;BME280;61064;51.654;5.476;2022-12-24T13:24:23;101368.72;;;11.37;84.35
72921;BME280;61064;51.654;5.476;2022-12-24T13:35:01;101366.72;;;11.16;83.92
72921;BME280;61064;51.654;5.476;2022-12-24T13:50:51;101371.16;;;11.16;83.96
72921;BME280;61064;51.654;5.476;2022-12-24T13:53:45;101362.28;;;11.14;83.98
72921;BME280;61064;51.654;5.476;2022-12-24T13:58:46;101379.19;;;11.19;83.82
72921;BME280;61064;51.654;5.476;2022-12-24T14:01:18;101392.56;;;11.23;83.80
72921;BME280;61064;51.654;5.476;2022-12-24T14:03:54;101372.97;;;11.18;83.78
72921;BME280;61064;51.654;5.476;2022-12-24T14:06:25;101382.72;;;11.18;83.89
72921;BME280;61064;51.654;5.476;2022-12-24T14:08:55;101402.34;;;11.24;83.60
72921;BME280;61064;51.654;5.476;2022-12-24T14:11:24;101404.97;;;11.20;83.66
72921;BME280;61064;51.654;5.476;2022-12-24T14:14:08;101408.53;;;11.23;83.59
72921;BME280;61064;51.654;5.476;2022-12-24T14:16:43;101405.78;;;11.14;83.64
72921;BME280;61064;51.654;5.476;2022-12-24T14:19:14;101405.81;;;11.17;83.63
72921;BME280;61064;51.654;5.476;2022-12-24T14:22:29;101420.03;;;11.19;83.68
72921;BME280;61064;51.654;5.476;2022-12-24T14:24:56;101423.56;;;11.18;83.67
72921;BME280;61064;51.654;5.476;2022-12-24T14:27:38;101420.88;;;11.17;83.75
72921;BME280;61064;51.654;5.476;2022-12-24T14:32:40;101412.78;;;11.08;84.01
72921;BME280;61064;51.654;5.476;2022-12-24T14:37:39;101410.13;;;11.08;83.90
72921;BME280;61064;51.654;5.476;2022-12-24T14:40:06;101423.44;;;11.08;83.85
72921;BME280;61064;51.654;5.476;2022-12-24T14:50:54;101433.84;;;10.91;83.91